createdAt,value
2019-04-01T00:01:22.173Z,9.98
2019-04-01T00:03:50.909Z,7.78
2019-04-01T00:06:19.315Z,9.23
2019-04-01T00:08:47.946Z,10.98
2019-04-01T00:11:16.586Z,7.83
2019-04-01T00:13:45.230Z,10.45
2019-04-01T00:16:13.614Z,7.72
2019-04-01T00:18:42.010Z,10.03
2019-04-01T00:21:10.437Z,10.32
2019-04-01T00:23:38.842Z,7.33
2019-04-01T00:26:07.494Z,10.58
2019-04-01T00:28:36.120Z,9.38
2019-04-01T00:31:04.761Z,10.82
2019-04-01T00:33:33.146Z,5.85
2019-04-01T00:36:01.541Z,7.35
2019-04-01T00:38:29.925Z,11.05
2019-04-01T00:40:58.358Z,13.45
2019-04-01T00:43:40.461Z,6.22
2019-04-01T00:46:10.427Z,6.83
2019-04-01T00:48:38.852Z,9.30
2019-04-01T00:51:07.474Z,10.63
2019-04-01T00:53:35.857Z,7.85
2019-04-01T00:56:04.266Z,8.10
2019-04-01T00:58:32.918Z,9.58
2019-04-01T01:01:01.303Z,5.92
2019-04-01T01:03:29.690Z,7.83
2019-04-01T01:05:58.103Z,8.55
2019-04-01T01:08:33.547Z,8.03
2019-04-01T01:11:01.966Z,9.35
2019-04-01T01:13:30.678Z,10.03
2019-04-01T01:15:59.547Z,12.20
2019-04-01T01:18:27.953Z,9.13
2019-04-01T01:20:56.345Z,8.93
2019-04-01T01:23:24.735Z,7.95
2019-04-01T01:25:53.135Z,12.82
2019-04-01T01:28:21.531Z,9.53
2019-04-01T01:30:49.918Z,11.40
2019-04-01T01:33:18.575Z,7.47
2019-04-01T01:35:47.211Z,9.55
2019-04-01T01:38:15.595Z,7.70
2019-04-01T01:40:44.054Z,7.50
2019-04-01T01:43:12.686Z,7.75
2019-04-01T01:45:41.086Z,9.95
2019-04-01T01:48:09.787Z,14.00
2019-04-01T01:50:38.425Z,11.00
2019-04-01T01:53:06.828Z,6.45
2019-04-01T01:55:35.542Z,8.13
2019-04-01T01:58:03.924Z,8.08
2019-04-01T02:00:33.486Z,7.05
2019-04-01T02:03:02.219Z,8.10
2019-04-01T02:05:30.609Z,10.68
2019-04-01T02:07:59.241Z,8.10
2019-04-01T02:10:27.629Z,8.55
2019-04-01T02:12:56.025Z,8.90
2019-04-01T02:15:24.648Z,7.78
2019-04-01T02:17:53.049Z,10.85
2019-04-01T02:20:21.481Z,13.20
2019-04-01T02:22:49.913Z,7.90
2019-04-01T02:25:18.278Z,8.23
2019-04-01T02:27:46.678Z,7.92
2019-04-01T02:30:15.143Z,8.15
2019-04-01T02:32:43.859Z,5.67
2019-04-01T02:35:12.277Z,6.78
2019-04-01T02:37:40.664Z,8.80
2019-04-01T02:40:09.223Z,8.20
2019-04-01T02:42:37.615Z,11.45
2019-04-01T02:45:06.182Z,7.28
2019-04-01T02:47:34.558Z,8.83
2019-04-01T02:50:03.275Z,7.70
2019-04-01T02:52:31.662Z,8.15
2019-04-01T02:55:00.488Z,8.23
2019-04-01T02:57:29.050Z,7.67
2019-04-01T02:59:57.443Z,11.57
2019-04-01T03:02:25.847Z,8.93
2019-04-01T03:04:54.249Z,8.58
2019-04-01T03:07:22.662Z,6.60
2019-04-01T03:09:51.054Z,8.00
2019-04-01T03:12:19.451Z,9.60
2019-04-01T03:14:47.871Z,7.60
2019-04-01T03:17:16.247Z,6.72
2019-04-01T03:19:44.674Z,7.50
2019-04-01T03:22:13.531Z,8.33
2019-04-01T03:24:41.961Z,7.22
2019-04-01T03:27:10.729Z,7.55
2019-04-01T03:29:39.138Z,8.28
2019-04-01T03:32:07.537Z,7.75
2019-04-01T03:34:35.988Z,8.55
2019-04-01T03:37:04.401Z,6.05
2019-04-01T03:39:32.779Z,7.62
2019-04-01T03:42:11.519Z,8.93
2019-04-01T03:44:41.547Z,7.08
2019-04-01T03:47:09.997Z,5.67
2019-04-01T03:49:38.471Z,7.97
2019-04-01T03:52:10.261Z,10.20
2019-04-01T03:54:37.211Z,5.92
2019-04-01T03:57:05.599Z,7.60
2019-04-01T03:59:34.018Z,7.12
2019-04-01T04:02:02.409Z,7.95
2019-04-01T04:04:30.839Z,7.30
2019-04-01T04:06:59.622Z,6.62
2019-04-01T04:09:28.004Z,6.60
2019-04-01T04:11:56.407Z,6.05
2019-04-01T04:14:25.056Z,10.18
2019-04-01T04:16:53.445Z,9.53
2019-04-01T04:19:21.845Z,6.95
2019-04-01T04:21:50.239Z,6.62
2019-04-01T04:24:18.670Z,5.65
2019-04-01T04:26:47.112Z,6.40
2019-04-01T04:29:15.735Z,6.83
2019-04-01T04:31:44.163Z,7.03
2019-04-01T04:34:12.582Z,6.70
2019-04-01T04:36:40.985Z,10.60
2019-04-01T04:39:09.675Z,8.38
2019-04-01T04:41:38.335Z,8.33
2019-04-01T04:44:06.812Z,9.45
2019-04-01T04:46:35.238Z,9.03
2019-04-01T04:49:03.939Z,16.77
2019-04-01T04:51:32.414Z,7.90
2019-04-01T04:54:01.005Z,7.00
2019-04-01T04:56:29.405Z,8.20
2019-04-01T04:58:57.792Z,7.20
2019-04-01T05:01:26.190Z,6.65
2019-04-01T05:03:54.819Z,8.88
2019-04-01T05:06:23.243Z,11.70
2019-04-01T05:08:51.638Z,9.35
2019-04-01T05:11:20.085Z,12.43
2019-04-01T05:13:48.593Z,8.18
2019-04-01T05:16:16.985Z,9.15
2019-04-01T05:18:45.645Z,8.35
2019-04-01T05:21:17.071Z,10.70
2019-04-01T05:23:47.151Z,7.75
2019-04-01T05:26:17.436Z,8.45
2019-04-01T05:28:46.730Z,9.80
2019-04-01T05:31:16.835Z,8.03
2019-04-01T05:33:55.256Z,12.65
2019-04-01T05:36:18.766Z,6.60
2019-04-01T05:38:47.678Z,8.55
2019-04-01T05:41:16.878Z,8.48
2019-04-01T05:43:45.281Z,6.30
2019-04-01T05:46:13.680Z,8.10
2019-04-01T05:48:42.880Z,8.03
2019-04-01T05:51:11.316Z,7.42
2019-04-01T05:53:39.975Z,7.47
2019-04-01T05:56:08.650Z,10.23
2019-04-01T05:58:37.340Z,9.03
2019-04-01T06:01:07.438Z,10.85
2019-04-01T06:03:35.926Z,10.13
2019-04-01T06:06:04.426Z,9.90
2019-04-01T06:08:33.162Z,7.08
2019-04-01T06:11:02.158Z,13.95
2019-04-01T06:13:30.557Z,8.75
2019-04-01T06:15:59.014Z,8.68
2019-04-01T06:18:27.722Z,7.72
2019-04-01T06:20:56.190Z,10.00
2019-04-01T06:23:25.334Z,7.40
2019-04-01T06:25:53.793Z,6.22
2019-04-01T06:28:22.316Z,6.72
2019-04-01T06:30:50.797Z,5.67
2019-04-01T06:33:19.210Z,7.83
2019-04-01T06:35:47.881Z,7.08
2019-04-01T06:38:16.278Z,6.55
2019-04-01T06:40:45.061Z,7.35
2019-04-01T06:43:13.824Z,5.87
2019-04-01T06:45:42.298Z,7.60
2019-04-01T06:48:11.001Z,5.67
2019-04-01T06:50:39.402Z,9.33
2019-04-01T06:53:08.047Z,8.63
2019-04-01T06:55:36.512Z,8.33
2019-04-01T06:58:04.986Z,8.80
2019-04-01T07:00:33.627Z,9.33
2019-04-01T07:03:02.218Z,9.43
2019-04-01T07:05:30.857Z,8.93
2019-04-01T07:07:59.485Z,8.93
2019-04-01T07:10:28.003Z,9.55
2019-04-01T07:12:56.444Z,9.25
2019-04-01T07:15:24.888Z,9.10
2019-04-01T07:17:53.790Z,9.00
2019-04-01T07:20:22.169Z,7.10
2019-04-01T07:22:50.827Z,10.07
2019-04-01T07:25:19.338Z,10.73
2019-04-01T07:27:47.922Z,7.67
2019-04-01T07:30:16.468Z,9.60
2019-04-01T07:32:44.890Z,13.67
2019-04-01T07:35:14.394Z,9.40
2019-04-01T07:37:43.326Z,6.97
2019-04-01T07:40:13.965Z,7.27
2019-04-01T07:42:42.067Z,6.43
2019-04-01T07:45:10.685Z,10.80
2019-04-01T07:47:39.234Z,8.23
2019-04-01T07:50:07.890Z,6.57
2019-04-01T07:52:36.342Z,7.73
2019-04-01T07:55:06.573Z,4.93
2019-04-01T07:57:35.375Z,9.20
2019-04-01T08:00:06.203Z,9.30
2019-04-01T08:02:34.902Z,10.23
2019-04-01T08:05:04.186Z,7.30
2019-04-01T08:07:32.622Z,6.60
2019-04-01T08:10:01.007Z,7.60
2019-04-01T08:12:29.409Z,5.90
2019-04-01T08:14:57.929Z,8.90
2019-04-01T08:17:26.468Z,5.97
2019-04-01T08:19:56.393Z,9.93
2019-04-01T08:22:24.842Z,8.40
2019-04-01T08:24:53.710Z,10.27
2019-04-01T08:27:22.141Z,9.20
2019-04-01T08:29:50.598Z,8.60
2019-04-01T08:32:19.182Z,10.37
2019-04-01T08:34:47.692Z,8.67
2019-04-01T08:37:16.082Z,7.40
2019-04-01T08:39:44.941Z,15.70
2019-04-01T08:42:13.722Z,8.03
2019-04-01T08:44:42.303Z,8.47
2019-04-01T08:47:10.706Z,9.77
2019-04-01T08:49:39.220Z,7.90
2019-04-01T08:52:07.666Z,6.23
2019-04-01T08:54:36.227Z,8.50
2019-04-01T08:57:05.299Z,8.23
2019-04-01T08:59:33.702Z,12.50
2019-04-01T09:02:16.723Z,16.73
2019-04-01T09:04:33.762Z,15.90
2019-04-01T09:07:02.394Z,14.50
2019-04-01T09:09:31.864Z,15.77
2019-04-01T09:12:01.439Z,14.10
2019-04-01T09:14:37.786Z,16.73
2019-04-01T09:17:06.230Z,13.70
2019-04-01T09:19:34.898Z,16.13
2019-04-01T09:22:03.329Z,17.67
2019-04-01T09:24:31.969Z,21.47
2019-04-01T09:27:00.392Z,13.67
2019-04-01T09:29:28.781Z,14.97
2019-04-01T09:31:57.490Z,23.03
2019-04-01T09:34:25.894Z,17.20
2019-04-01T09:36:54.298Z,18.03
2019-04-01T09:39:22.698Z,17.47
2019-04-01T09:41:51.145Z,17.00
2019-04-01T09:44:19.542Z,17.83
2019-04-01T09:46:49.099Z,18.10
2019-04-01T09:49:17.958Z,18.20
2019-04-01T09:51:48.857Z,20.13
2019-04-01T09:54:16.723Z,16.80
2019-04-01T09:56:45.353Z,15.83
2019-04-01T09:59:13.790Z,17.17
2019-04-01T10:01:42.432Z,19.10
2019-04-01T10:04:11.111Z,15.37
2019-04-01T10:06:39.565Z,20.27
2019-04-01T10:09:08.543Z,18.83
2019-04-01T10:11:36.962Z,15.37
2019-04-01T10:14:05.473Z,17.50
2019-04-01T10:16:34.057Z,16.90
2019-04-01T10:19:02.735Z,17.33
2019-04-01T10:21:31.219Z,17.60
2019-04-01T10:23:59.649Z,17.63
2019-04-01T10:26:28.395Z,18.90
2019-04-01T10:28:57.042Z,19.23
2019-04-01T10:31:25.842Z,19.13
2019-04-01T10:33:54.470Z,16.10
2019-04-01T10:36:23.182Z,18.33
2019-04-01T10:38:51.606Z,15.23
2019-04-01T10:41:20.005Z,21.60
2019-04-01T10:43:48.435Z,18.03
2019-04-01T10:46:17.077Z,19.50
2019-04-01T10:48:45.489Z,19.40
2019-04-01T10:51:13.886Z,21.33
2019-04-01T10:53:42.366Z,21.43
2019-04-01T10:56:10.772Z,13.77
2019-04-01T10:58:39.504Z,20.63
2019-04-01T11:01:08.046Z,18.93
2019-04-01T11:03:36.478Z,18.00
2019-04-01T11:06:04.916Z,17.40
2019-04-01T11:08:33.623Z,18.67
2019-04-01T11:11:02.099Z,18.90
2019-04-01T11:13:30.591Z,15.43
2019-04-01T11:15:59.048Z,24.53
2019-04-01T11:18:27.458Z,23.47
2019-04-01T11:20:57.042Z,20.47
2019-04-01T11:23:25.655Z,17.00
2019-04-01T11:25:54.291Z,20.43
2019-04-01T11:28:22.693Z,19.80
2019-04-01T11:30:51.222Z,19.40
2019-04-01T11:33:19.668Z,21.30
2019-04-01T11:35:48.148Z,25.40
2019-04-01T11:38:18.375Z,18.47
2019-04-01T11:40:46.829Z,17.70
2019-04-01T11:43:15.534Z,22.50
2019-04-01T11:45:43.999Z,20.17
2019-04-01T11:48:12.478Z,19.70
2019-04-01T11:50:41.011Z,20.40
2019-04-01T11:53:09.654Z,22.33
2019-04-01T11:55:38.079Z,20.90
2019-04-01T11:58:06.770Z,22.00
2019-04-01T12:00:35.209Z,20.40
2019-04-01T12:03:03.610Z,18.23
2019-04-01T12:05:32.453Z,19.47
2019-04-01T12:08:01.354Z,22.93
2019-04-01T12:10:30.035Z,20.87
2019-04-01T12:12:59.976Z,17.10
2019-04-01T12:15:28.542Z,16.17
2019-04-01T12:17:57.122Z,19.87
2019-04-01T12:20:25.594Z,16.80
2019-04-01T12:22:54.014Z,16.70
2019-04-01T12:25:22.431Z,20.90
2019-04-01T12:27:50.925Z,18.03
2019-04-01T12:30:19.333Z,19.00
2019-04-01T12:32:49.577Z,21.40
2019-04-01T12:35:19.130Z,22.30
2019-04-01T12:37:47.903Z,18.87
2019-04-01T12:40:16.314Z,22.33
2019-04-01T12:42:46.373Z,23.33
2019-04-01T12:45:15.015Z,19.90
2019-04-01T12:47:43.710Z,18.17
2019-04-01T12:50:12.519Z,19.50
2019-04-01T12:52:41.232Z,21.77
2019-04-01T12:55:10.571Z,24.53
2019-04-01T12:57:38.978Z,23.90
2019-04-01T13:00:09.386Z,19.27
2019-04-01T13:02:37.806Z,21.33
2019-04-01T13:05:07.249Z,19.90
2019-04-01T13:07:35.715Z,20.93
2019-04-01T13:10:06.465Z,21.30
2019-04-01T13:12:34.870Z,20.10
2019-04-01T13:15:12.979Z,22.50
2019-04-01T13:17:41.953Z,24.20
2019-04-01T13:20:13.986Z,19.93
2019-04-01T13:22:42.662Z,18.87
2019-04-01T13:25:12.942Z,19.27
2019-04-01T13:27:41.350Z,21.23
2019-04-01T13:30:10.322Z,17.80
2019-04-01T13:32:39.115Z,23.83
2019-04-01T13:35:07.889Z,20.53
2019-04-01T13:37:36.291Z,20.87
2019-04-01T13:40:05.554Z,19.33
2019-04-01T13:42:34.198Z,22.70
2019-04-01T13:45:02.692Z,26.67
2019-04-01T13:47:31.373Z,22.53
2019-04-01T13:49:59.829Z,27.63
2019-04-01T13:52:28.234Z,17.63
2019-04-01T13:54:56.689Z,24.63
2019-04-01T13:57:25.106Z,22.73
2019-04-01T13:59:53.573Z,22.57
2019-04-01T14:02:22.058Z,26.80
2019-04-01T14:04:50.526Z,22.40
2019-04-01T14:07:19.055Z,22.50
2019-04-01T14:09:47.498Z,21.27
2019-04-01T14:12:15.900Z,18.73
2019-04-01T14:14:44.311Z,20.60
2019-04-01T14:17:12.786Z,19.53
2019-04-01T14:19:41.262Z,19.73
2019-04-01T14:22:09.675Z,21.87
2019-04-01T14:24:38.138Z,23.63
2019-04-01T14:27:06.788Z,21.27
2019-04-01T14:29:36.752Z,22.50
2019-04-01T14:32:05.391Z,20.53
2019-04-01T14:34:35.484Z,22.40
2019-04-01T14:37:04.948Z,21.73
2019-04-01T14:39:34.870Z,18.10
2019-04-01T14:42:03.437Z,20.47
2019-04-01T14:44:31.839Z,21.33
2019-04-01T14:47:00.413Z,24.53
2019-04-01T14:49:28.817Z,22.70
2019-04-01T14:51:57.270Z,22.90
2019-04-01T14:54:25.682Z,18.47
2019-04-01T14:56:54.081Z,20.50
2019-04-01T14:59:22.509Z,19.10
2019-04-01T15:01:51.184Z,19.10
2019-04-01T15:04:19.636Z,19.33
2019-04-01T15:06:48.262Z,19.40
2019-04-01T15:09:17.457Z,18.80
2019-04-01T15:11:46.119Z,19.67
2019-04-01T15:14:14.532Z,19.20
2019-04-01T15:16:43.005Z,23.47
2019-04-01T15:19:13.007Z,21.60
2019-04-01T15:21:41.605Z,19.10
2019-04-01T15:24:10.005Z,23.23
2019-04-01T15:26:38.445Z,24.47
2019-04-01T15:29:06.858Z,18.63
2019-04-01T15:31:35.546Z,18.73
2019-04-01T15:34:04.026Z,19.27
2019-04-01T15:36:32.453Z,17.23
2019-04-01T15:39:00.902Z,21.60
2019-04-01T15:41:29.301Z,20.10
2019-04-01T15:43:58.003Z,18.73
2019-04-01T15:46:26.473Z,22.20
2019-04-01T15:48:54.885Z,21.27
2019-04-01T15:51:23.284Z,22.73
2019-04-01T15:53:51.922Z,19.30
2019-04-01T15:56:20.322Z,22.50
2019-04-01T15:58:50.753Z,20.53
2019-04-01T16:01:18.978Z,21.57
2019-04-01T16:03:47.674Z,17.43
2019-04-01T16:06:16.369Z,21.37
2019-04-01T16:08:44.790Z,18.20
2019-04-01T16:11:13.294Z,21.43
2019-04-01T16:13:42.331Z,17.87
2019-04-01T16:16:14.400Z,18.60
2019-04-01T16:18:41.839Z,22.80
2019-04-01T16:21:10.249Z,24.50
2019-04-01T16:23:38.653Z,19.57
2019-04-01T16:26:09.503Z,18.23
2019-04-01T16:28:37.242Z,20.50
2019-04-01T16:31:05.705Z,21.63
2019-04-01T16:33:34.251Z,22.30
2019-04-01T16:36:02.659Z,17.50
2019-04-01T16:38:31.186Z,17.83
2019-04-01T16:40:59.899Z,20.90
2019-04-01T16:43:28.327Z,18.53
2019-04-01T16:45:56.773Z,17.33
2019-04-01T16:48:25.272Z,19.53
2019-04-01T16:50:53.912Z,17.03
2019-04-01T16:53:22.353Z,19.47
2019-04-01T16:55:50.746Z,22.90
2019-04-01T16:58:19.243Z,18.27
2019-04-01T17:00:47.650Z,17.07
2019-04-01T17:03:18.295Z,21.30
2019-04-01T17:05:47.315Z,16.30
2019-04-01T17:08:15.810Z,16.47
2019-04-01T17:10:44.230Z,18.23
2019-04-01T17:13:12.871Z,16.57
2019-04-01T17:15:41.377Z,17.53
2019-04-01T17:18:09.865Z,13.67
2019-04-01T17:20:38.293Z,18.67
2019-04-01T17:23:07.021Z,16.67
2019-04-01T17:25:35.457Z,16.63
2019-04-01T17:28:03.865Z,20.07
2019-04-01T17:30:32.269Z,23.73
2019-04-01T17:33:00.823Z,16.07
2019-04-01T17:35:29.547Z,22.40
2019-04-01T17:37:57.982Z,14.90
2019-04-01T17:40:26.384Z,13.90
2019-04-01T17:42:55.035Z,14.93
2019-04-01T17:45:26.545Z,11.87
2019-04-01T17:47:55.081Z,14.63
2019-04-01T17:50:23.917Z,15.50
2019-04-01T17:52:53.787Z,11.33
2019-04-01T17:55:22.613Z,15.13
2019-04-01T17:57:51.205Z,12.10
2019-04-01T18:00:21.258Z,23.83
2019-04-01T18:02:49.703Z,10.60
2019-04-01T18:05:19.682Z,12.53
2019-04-01T18:07:48.374Z,14.07
2019-04-01T18:10:16.902Z,13.10
2019-04-01T18:12:45.451Z,9.87
2019-04-01T18:15:13.958Z,10.00
2019-04-01T18:17:42.451Z,12.57
2019-04-01T18:20:11.407Z,8.65
2019-04-01T18:22:39.834Z,13.20
2019-04-01T18:25:08.581Z,13.08
2019-04-01T18:27:37.000Z,16.40
2019-04-01T18:30:08.153Z,11.95
2019-04-01T18:32:36.607Z,11.63
2019-04-01T18:35:08.230Z,10.88
2019-04-01T18:37:36.628Z,11.70
2019-04-01T18:40:05.877Z,11.12
2019-04-01T18:42:34.522Z,9.08
2019-04-01T18:45:03.208Z,10.08
2019-04-01T18:47:31.622Z,17.15
2019-04-01T18:50:00.277Z,39.08
2019-04-01T18:52:28.719Z,9.68
2019-04-01T18:54:57.122Z,10.10
2019-04-01T18:57:27.195Z,10.70
2019-04-01T18:59:55.990Z,12.35
2019-04-01T19:04:56.370Z,11.93
2019-04-01T19:07:24.788Z,10.65
2019-04-01T19:10:05.475Z,13.45
2019-04-01T19:12:24.544Z,10.95
2019-04-01T19:14:52.941Z,10.90
2019-04-01T19:17:21.390Z,14.28
2019-04-01T19:19:50.137Z,18.42
2019-04-01T19:22:18.663Z,21.30
2019-04-01T19:24:47.066Z,15.60
2019-04-01T19:27:22.438Z,15.93
2019-04-01T19:29:51.126Z,15.08
2019-04-01T19:32:19.527Z,11.95
2019-04-01T19:34:48.363Z,11.95
2019-04-01T19:37:18.302Z,12.93
2019-04-01T19:39:46.847Z,11.75
2019-04-01T19:42:15.248Z,13.78
2019-04-01T19:44:43.650Z,13.03
2019-04-01T19:47:14.214Z,15.00
2019-04-01T19:49:42.875Z,20.88
2019-04-01T19:52:11.515Z,25.88
2019-04-01T19:54:39.985Z,32.42
2019-04-01T19:57:08.426Z,30.90
2019-04-01T19:59:36.851Z,27.20
2019-04-01T20:02:05.497Z,33.18
2019-04-01T20:04:33.899Z,40.15
2019-04-01T20:07:02.358Z,32.65
2019-04-01T20:09:30.773Z,31.60
2019-04-01T20:11:59.239Z,33.18
2019-04-01T20:14:27.725Z,30.35
2019-04-01T20:16:56.130Z,24.35
2019-04-01T20:19:24.780Z,23.38
2019-04-01T20:21:53.179Z,20.77
2019-04-01T20:24:21.645Z,18.10
2019-04-01T20:26:50.419Z,18.75
2019-04-01T20:29:18.844Z,18.15
2019-04-01T20:31:47.254Z,19.57
2019-04-01T20:34:19.937Z,17.48
2019-04-01T20:36:45.798Z,16.77
2019-04-01T20:39:14.269Z,13.65
2019-04-01T20:41:42.704Z,17.17
2019-04-01T20:44:12.261Z,16.65
2019-04-01T20:46:40.858Z,15.55
2019-04-01T20:49:09.379Z,13.32
2019-04-01T20:51:37.777Z,15.15
2019-04-01T20:54:06.431Z,16.00
2019-04-01T20:56:35.073Z,10.55
2019-04-01T20:59:04.476Z,12.98
2019-04-01T21:01:33.105Z,17.07
2019-04-01T21:04:01.517Z,12.78
2019-04-01T21:06:30.000Z,11.20
2019-04-01T21:08:58.661Z,20.12
2019-04-01T21:11:27.137Z,14.85
2019-04-01T21:13:55.837Z,13.95
2019-04-01T21:16:24.480Z,12.85
2019-04-01T21:18:53.213Z,13.75
2019-04-01T21:21:21.902Z,13.28
2019-04-01T21:23:50.552Z,13.98
2019-04-01T21:26:19.021Z,17.10
2019-04-01T21:28:54.144Z,10.45
2019-04-01T21:31:22.632Z,12.40
2019-04-01T21:33:51.027Z,11.33
2019-04-01T21:36:19.423Z,10.65
2019-04-01T21:38:47.959Z,10.82
2019-04-01T21:41:22.338Z,13.43
2019-04-01T21:43:50.751Z,13.32
2019-04-01T21:46:19.212Z,14.93
2019-04-01T21:48:47.608Z,13.50
2019-04-01T21:51:16.098Z,12.98
2019-04-01T21:53:44.574Z,11.65
2019-04-01T21:56:13.041Z,16.75
2019-04-01T21:58:41.670Z,11.78
2019-04-01T22:01:10.688Z,13.43
2019-04-01T22:03:39.073Z,16.35
2019-04-01T22:06:09.015Z,13.88
2019-04-01T22:08:37.406Z,10.88
2019-04-01T22:11:05.815Z,14.05
2019-04-01T22:13:34.250Z,18.48
2019-04-01T22:16:02.727Z,12.68
2019-04-01T22:18:32.902Z,13.35
2019-04-01T22:21:01.251Z,13.70
2019-04-01T22:23:29.641Z,12.30
2019-04-01T22:25:58.161Z,10.03
2019-04-01T22:28:27.470Z,11.33
2019-04-01T22:30:55.898Z,10.78
2019-04-01T22:33:24.293Z,14.20
2019-04-01T22:35:52.707Z,10.63
2019-04-01T22:38:25.403Z,12.18
2019-04-01T22:40:51.227Z,14.03
2019-04-01T22:43:19.700Z,10.32
2019-04-01T22:45:50.033Z,13.85
2019-04-01T22:48:18.469Z,12.73
2019-04-01T22:50:46.866Z,12.03
2019-04-01T22:53:15.512Z,11.38
2019-04-01T22:55:43.897Z,17.60
2019-04-01T22:58:12.561Z,14.85
2019-04-01T23:00:41.674Z,14.15
2019-04-01T23:03:10.449Z,14.33
2019-04-01T23:05:39.841Z,14.38
2019-04-01T23:08:08.253Z,11.68
2019-04-01T23:10:36.903Z,11.95
2019-04-01T23:13:05.546Z,18.35
2019-04-01T23:15:34.193Z,11.22
2019-04-01T23:18:02.586Z,11.22
2019-04-01T23:20:30.989Z,12.80
2019-04-01T23:25:50.574Z,12.78
2019-04-01T23:28:18.968Z,17.77
2019-04-01T23:30:48.147Z,14.33
2019-04-01T23:33:17.456Z,12.05
2019-04-01T23:35:45.862Z,10.08
2019-04-01T23:38:14.315Z,11.28
2019-04-01T23:40:42.717Z,11.15
2019-04-01T23:43:11.119Z,14.73
2019-04-01T23:45:39.847Z,15.93
2019-04-01T23:48:08.349Z,10.32
2019-04-01T23:50:37.215Z,13.25
2019-04-01T23:53:06.669Z,17.07
2019-04-01T23:55:35.144Z,14.30
2019-04-01T23:58:03.607Z,10.82
